Time;durP1;ratioP1;P1;durP2;ratioP2;P2;SDS_P1;SDS_P2;PMS_P1;PMS_P2;Temp;Humidity;BMP_temperature;BMP_pressure;BME280_temperature;BME280_humidity;BME280_pressure;Samples;Min_cycle;Max_cycle;Signal;HPM_P1;HPM_P2
2022/11/30 00:00:02;;;;;;;85.75;41.28;;;2.70;99.90;;;;;;5050489;28;20079;-68
2022/11/30 00:02:29;;;;;;;90.75;42.35;;;2.70;99.90;;;;;;5051189;28;20040;-69
2022/11/30 00:04:54;;;;;;;81.13;40.28;;;2.60;99.90;;;;;;5050519;28;20033;-69
2022/11/30 00:07:20;;;;;;;86.15;40.65;;;2.70;99.90;;;;;;5049663;28;20112;-68
2022/11/30 00:09:46;;;;;;;83.93;41.30;;;2.70;99.90;;;;;;5032885;28;20029;-72
2022/11/30 00:12:11;;;;;;;86.45;40.05;;;2.70;99.90;;;;;;5050656;28;20028;-69
2022/11/30 00:14:37;;;;;;;83.32;39.47;;;2.60;99.90;;;;;;5050792;28;20028;-69
2022/11/30 00:17:02;;;;;;;81.93;39.38;;;2.60;99.90;;;;;;5050192;28;20029;-69
2022/11/30 00:19:28;;;;;;;80.10;39.47;;;2.60;99.90;;;;;;5050352;28;20025;-69
2022/11/30 00:21:54;;;;;;;79.70;38.35;;;2.60;99.90;;;;;;5049887;28;20432;-69
2022/11/30 00:24:19;;;;;;;81.63;40.33;;;2.60;99.90;;;;;;5050504;28;20132;-69
2022/11/30 00:26:45;;;;;;;79.80;39.15;;;2.60;99.90;;;;;;5050365;28;20481;-68
2022/11/30 00:29:11;;;;;;;77.43;39.00;;;2.50;99.90;;;;;;5050134;28;20067;-68
2022/11/30 00:31:37;;;;;;;81.20;37.95;;;2.50;99.90;;;;;;5050611;28;20036;-68
2022/11/30 00:34:02;;;;;;;81.55;38.92;;;2.50;99.90;;;;;;5049746;28;20033;-69
2022/11/30 00:36:28;;;;;;;79.72;39.05;;;2.50;99.90;;;;;;5050121;28;20064;-69
2022/11/30 00:38:54;;;;;;;79.93;39.15;;;2.50;99.90;;;;;;5052624;28;20061;-69
2022/11/30 00:41:20;;;;;;;82.85;40.67;;;2.50;99.90;;;;;;5054079;28;20492;-69
2022/11/30 00:43:46;;;;;;;72.32;37.00;;;2.50;99.90;;;;;;5054209;28;20029;-69
2022/11/30 00:46:12;;;;;;;87.70;40.40;;;2.50;99.90;;;;;;5053572;28;20170;-69
2022/11/30 00:48:38;;;;;;;77.55;39.80;;;2.60;99.90;;;;;;5053973;28;20029;-69
2022/11/30 00:51:06;;;;;;;82.43;38.47;;;2.60;99.90;;;;;;5053845;28;20111;-69
2022/11/30 00:53:32;;;;;;;79.30;40.33;;;2.50;99.90;;;;;;5053846;28;20527;-69
2022/11/30 00:55:57;;;;;;;80.63;39.88;;;2.60;99.90;;;;;;5052415;28;20032;-69
2022/11/30 00:58:23;;;;;;;78.10;38.85;;;2.50;99.90;;;;;;5053853;28;20025;-69
2022/11/30 01:00:49;;;;;;;82.95;40.05;;;2.60;99.90;;;;;;5053119;28;20025;-69
2022/11/30 01:03:15;;;;;;;82.43;40.13;;;2.50;99.90;;;;;;5053671;28;20036;-69
2022/11/30 01:05:42;;;;;;;80.97;39.60;;;2.50;99.90;;;;;;5053712;28;20025;-68
2022/11/30 01:08:09;;;;;;;79.03;38.38;;;2.50;99.90;;;;;;5053636;28;20171;-68
2022/11/30 01:10:37;;;;;;;82.28;40.88;;;2.50;99.90;;;;;;5053072;28;20485;-67
2022/11/30 01:13:03;;;;;;;81.72;39.97;;;2.50;99.90;;;;;;5052782;28;20134;-68
2022/11/30 01:15:29;;;;;;;83.72;42.58;;;2.50;99.90;;;;;;5053104;28;20033;-68
2022/11/30 01:17:54;;;;;;;84.20;40.90;;;2.50;99.90;;;;;;5052764;28;20052;-68
2022/11/30 01:20:20;;;;;;;87.45;42.15;;;2.50;99.90;;;;;;5052586;28;20032;-68
2022/11/30 01:22:46;;;;;;;84.13;41.35;;;2.50;99.90;;;;;;5053153;28;20052;-69
2022/11/30 01:25:11;;;;;;;82.28;40.90;;;2.60;99.90;;;;;;5051238;28;20553;-70
2022/11/30 01:27:37;;;;;;;81.03;40.65;;;2.60;99.90;;;;;;5052884;28;20057;-69
2022/11/30 01:30:04;;;;;;;91.55;41.25;;;2.60;99.90;;;;;;5051309;28;20036;-70
2022/11/30 01:32:30;;;;;;;86.38;39.83;;;2.60;99.90;;;;;;5053007;28;20063;-68
2022/11/30 01:34:55;;;;;;;81.78;39.95;;;2.60;99.90;;;;;;5052445;28;20060;-68
2022/11/30 01:37:21;;;;;;;75.30;38.22;;;2.60;99.90;;;;;;5052973;28;20104;-68
2022/11/30 01:39:47;;;;;;;90.10;42.80;;;2.60;99.90;;;;;;5053119;28;20029;-68
2022/11/30 01:42:18;;;;;;;87.78;41.13;;;2.60;99.90;;;;;;5051983;28;20045;-69
2022/11/30 01:44:47;;;;;;;88.65;42.45;;;2.60;99.90;;;;;;5052873;28;20146;-69
2022/11/30 01:47:13;;;;;;;86.93;40.42;;;2.50;99.90;;;;;;5052243;28;20698;-68
2022/11/30 01:49:43;;;;;;;84.07;41.85;;;2.50;99.90;;;;;;5051701;28;20100;-68
2022/11/30 01:52:16;;;;;;;91.57;42.88;;;2.50;99.90;;;;;;5052637;28;20709;-68
2022/11/30 01:54:56;;;;;;;78.32;40.47;;;2.50;99.90;;;;;;5052484;28;20056;-68
2022/11/30 01:57:28;;;;;;;81.55;40.40;;;2.60;99.90;;;;;;5052553;28;20025;-68
2022/11/30 01:59:57;;;;;;;84.90;41.50;;;2.60;99.90;;;;;;5052186;28;20116;-69
2022/11/30 02:02:45;;;;;;;89.00;40.38;;;2.60;99.90;;;;;;5052561;28;20037;-68
2022/11/30 02:05:12;;;;;;;89.25;44.03;;;2.60;99.90;;;;;;5052108;28;20043;-68
2022/11/30 02:07:38;;;;;;;85.40;40.67;;;2.60;99.90;;;;;;5052242;28;20031;-68
2022/11/30 02:10:04;;;;;;;86.18;42.65;;;2.60;99.90;;;;;;5051873;28;20817;-68
2022/11/30 02:13:04;;;;;;;86.70;42.85;;;2.60;99.90;;;;;;5052311;28;20440;-68
2022/11/30 02:15:53;;;;;;;89.55;41.97;;;2.60;99.90;;;;;;5052297;28;20032;-68
2022/11/30 02:18:27;;;;;;;83.72;40.20;;;2.60;99.90;;;;;;5051935;28;20115;-68
2022/11/30 02:21:03;;;;;;;82.57;40.97;;;2.50;99.90;;;;;;5051724;28;20036;-68
2022/11/30 02:23:47;;;;;;;83.40;40.92;;;2.60;99.90;;;;;;5052354;28;20112;-68
2022/11/30 02:26:46;;;;;;;86.75;43.17;;;2.60;99.90;;;;;;5051957;28;20021;-68
2022/11/30 02:29:29;;;;;;;84.93;41.65;;;2.60;99.90;;;;;;5052229;28;20112;-68
2022/11/30 02:32:15;;;;;;;82.43;41.70;;;2.60;99.90;;;;;;5051863;28;20027;-68
2022/11/30 02:34:42;;;;;;;82.75;40.30;;;2.60;99.90;;;;;;5051643;28;20033;-68
2022/11/30 02:37:10;;;;;;;91.20;43.30;;;2.60;99.90;;;;;;5050252;28;20331;-68
2022/11/30 02:39:35;;;;;;;86.57;42.05;;;2.60;99.90;;;;;;5052004;28;20029;-68
2022/11/30 02:42:01;;;;;;;90.07;44.00;;;2.60;99.90;;;;;;5051333;28;20094;-70
2022/11/30 02:44:27;;;;;;;87.60;42.90;;;2.60;99.90;;;;;;5051814;28;20507;-70
2022/11/30 02:47:18;;;;;;;86.45;41.08;;;2.60;99.90;;;;;;5051471;28;20125;-70
2022/11/30 02:49:55;;;;;;;89.45;43.03;;;2.60;99.90;;;;;;5051856;28;20033;-67
2022/11/30 02:52:26;;;;;;;86.78;42.55;;;2.60;99.90;;;;;;5050391;28;20033;-69
2022/11/30 02:54:57;;;;;;;91.63;42.95;;;2.60;99.90;;;;;;5051768;28;20035;-72
2022/11/30 02:57:23;;;;;;;94.57;44.97;;;2.60;99.90;;;;;;5051342;28;20423;-69
2022/11/30 02:59:49;;;;;;;86.25;42.40;;;2.60;99.90;;;;;;5050968;28;20087;-69
2022/11/30 03:02:14;;;;;;;92.43;44.75;;;2.60;99.90;;;;;;5050589;28;20064;-69
2022/11/30 03:04:40;;;;;;;89.50;43.67;;;2.60;99.90;;;;;;5051346;28;20032;-69
2022/11/30 03:07:05;;;;;;;91.15;44.08;;;2.60;99.90;;;;;;5050903;28;20021;-69
2022/11/30 03:09:31;;;;;;;96.28;44.25;;;2.60;99.90;;;;;;5050908;28;20129;-70
2022/11/30 03:11:56;;;;;;;92.38;42.92;;;2.70;99.90;;;;;;5053781;28;20090;-69
2022/11/30 03:14:22;;;;;;;87.65;42.63;;;2.60;99.90;;;;;;5063911;28;20503;-69
2022/11/30 03:16:48;;;;;;;84.80;43.22;;;2.60;99.90;;;;;;5055882;28;20025;-69
2022/11/30 03:19:13;;;;;;;94.18;45.00;;;2.60;99.90;;;;;;5067216;28;20059;-69
2022/11/30 03:21:39;;;;;;;94.43;43.10;;;2.60;99.90;;;;;;5050603;28;20083;-70
2022/11/30 03:24:05;;;;;;;87.78;42.92;;;2.60;99.90;;;;;;5050770;28;20037;-69
2022/11/30 03:26:31;;;;;;;91.80;43.85;;;2.60;99.90;;;;;;5051156;28;20025;-69
2022/11/30 03:28:56;;;;;;;96.82;43.47;;;2.60;99.90;;;;;;5050639;28;20064;-69
2022/11/30 03:31:22;;;;;;;93.53;44.35;;;2.60;99.90;;;;;;5051219;28;20032;-69
2022/11/30 03:33:47;;;;;;;98.68;44.80;;;2.60;99.90;;;;;;5051229;28;20025;-69
2022/11/30 03:36:13;;;;;;;89.82;42.35;;;2.60;99.90;;;;;;5050360;28;20052;-70
2022/11/30 03:38:39;;;;;;;94.10;43.58;;;2.60;99.90;;;;;;5050869;28;20466;-69
2022/11/30 03:41:08;;;;;;;99.10;44.08;;;2.60;99.90;;;;;;5050806;28;20032;-69
2022/11/30 03:43:34;;;;;;;94.05;43.45;;;2.60;99.90;;;;;;5051045;28;20035;-70
2022/11/30 03:46:00;;;;;;;98.13;45.20;;;2.60;99.90;;;;;;5050808;28;20727;-69
2022/11/30 03:48:25;;;;;;;95.35;45.35;;;2.60;99.90;;;;;;5051152;28;20029;-69
2022/11/30 03:50:51;;;;;;;92.15;45.10;;;2.60;99.90;;;;;;5049786;28;20377;-69
2022/11/30 03:53:18;;;;;;;96.25;44.53;;;2.60;99.90;;;;;;5050652;28;20111;-68
2022/11/30 03:55:44;;;;;;;95.40;44.95;;;2.60;99.90;;;;;;5050884;28;20029;-68
2022/11/30 03:58:10;;;;;;;92.22;45.63;;;2.60;99.90;;;;;;5050813;28;20082;-69
2022/11/30 04:00:36;;;;;;;92.63;42.60;;;2.60;99.90;;;;;;5050565;28;20089;-69
2022/11/30 04:03:02;;;;;;;90.95;44.63;;;2.60;99.90;;;;;;5050576;28;20037;-68
2022/11/30 04:05:28;;;;;;;99.38;44.65;;;2.60;99.90;;;;;;5050716;28;20036;-68
2022/11/30 04:07:53;;;;;;;92.53;44.80;;;2.50;99.90;;;;;;5051333;28;20032;-68
2022/11/30 04:10:19;;;;;;;93.13;45.05;;;2.60;99.90;;;;;;5051127;28;20032;-69
2022/11/30 04:12:45;;;;;;;95.65;47.05;;;2.60;99.90;;;;;;5052241;28;20025;-69
2022/11/30 04:15:10;;;;;;;89.80;44.20;;;2.60;99.90;;;;;;5054986;28;20024;-68
2022/11/30 04:17:36;;;;;;;96.32;44.90;;;2.60;99.90;;;;;;5054199;28;20527;-68
2022/11/30 04:20:02;;;;;;;93.85;45.22;;;2.60;99.90;;;;;;5053662;28;20029;-67
2022/11/30 04:22:28;;;;;;;94.25;46.13;;;2.60;99.90;;;;;;5055608;28;20072;-69
2022/11/30 04:24:54;;;;;;;94.75;44.17;;;2.60;99.90;;;;;;5055113;28;20426;-69
2022/11/30 04:27:19;;;;;;;96.50;45.47;;;2.60;99.90;;;;;;5054855;28;20027;-69
2022/11/30 04:29:45;;;;;;;88.85;44.20;;;2.60;99.90;;;;;;5055690;28;20028;-68
2022/11/30 04:32:11;;;;;;;93.80;43.25;;;2.60;99.90;;;;;;5055030;28;20025;-69
2022/11/30 04:34:36;;;;;;;90.30;43.80;;;2.60;99.90;;;;;;5055048;28;20025;-69
2022/11/30 04:37:02;;;;;;;95.88;45.08;;;2.60;99.90;;;;;;5054897;28;20057;-69
2022/11/30 04:39:27;;;;;;;86.82;42.95;;;2.60;99.90;;;;;;5055183;28;20025;-68
2022/11/30 04:41:53;;;;;;;85.82;44.17;;;2.60;99.90;;;;;;5055010;28;20041;-68
2022/11/30 04:44:19;;;;;;;83.47;42.42;;;2.60;99.90;;;;;;5054689;28;20400;-68
2022/11/30 04:46:45;;;;;;;87.38;44.05;;;2.60;99.90;;;;;;5054495;28;20033;-69
2022/11/30 04:49:10;;;;;;;94.20;44.25;;;2.60;99.90;;;;;;5053166;28;20029;-68
2022/11/30 04:51:36;;;;;;;87.93;45.42;;;2.60;99.90;;;;;;5054468;28;20036;-69
2022/11/30 04:54:01;;;;;;;86.30;43.20;;;2.60;99.90;;;;;;5052400;28;20043;-68
2022/11/30 04:56:27;;;;;;;93.10;46.20;;;2.60;99.90;;;;;;5054523;28;20434;-68
2022/11/30 04:58:53;;;;;;;86.75;43.30;;;2.60;99.90;;;;;;5053318;28;20052;-68
2022/11/30 05:01:18;;;;;;;93.65;45.55;;;2.70;99.90;;;;;;5054125;28;20227;-68
2022/11/30 05:03:44;;;;;;;92.75;43.75;;;2.70;99.90;;;;;;5054303;28;20104;-69
2022/11/30 05:06:10;;;;;;;96.50;44.58;;;2.70;99.90;;;;;;5052109;28;20025;-70
2022/11/30 05:08:35;;;;;;;86.38;42.30;;;2.70;99.90;;;;;;5053982;28;20021;-69
2022/11/30 05:11:01;;;;;;;87.55;43.33;;;2.70;99.90;;;;;;5053933;28;20351;-69
2022/11/30 05:13:27;;;;;;;89.60;43.80;;;2.80;99.90;;;;;;5054241;28;20089;-70
2022/11/30 05:15:52;;;;;;;88.95;44.88;;;2.80;99.90;;;;;;5053685;28;20063;-69
2022/11/30 05:18:18;;;;;;;89.65;42.97;;;2.80;99.90;;;;;;5053956;28;20025;-69
2022/11/30 05:20:48;;;;;;;95.03;45.97;;;2.80;99.90;;;;;;5054395;28;20381;-69
2022/11/30 05:23:15;;;;;;;86.80;43.33;;;2.80;99.90;;;;;;5052343;28;20033;-69
2022/11/30 05:25:42;;;;;;;88.75;44.75;;;2.80;99.90;;;;;;5053969;28;20025;-68
2022/11/30 05:28:07;;;;;;;93.85;45.92;;;2.80;99.90;;;;;;5053559;28;20104;-68
2022/11/30 05:30:33;;;;;;;97.25;43.95;;;2.80;99.90;;;;;;5054147;28;20114;-68
2022/11/30 05:32:58;;;;;;;91.97;44.45;;;2.80;99.90;;;;;;5054139;28;20036;-68
2022/11/30 05:35:24;;;;;;;93.25;45.17;;;2.80;99.90;;;;;;5053327;28;20045;-69
2022/11/30 05:37:50;;;;;;;88.82;44.83;;;2.80;99.90;;;;;;5054262;28;20027;-69
2022/11/30 05:40:16;;;;;;;92.20;46.30;;;2.90;99.90;;;;;;5057026;28;20029;-69
2022/11/30 05:42:41;;;;;;;92.13;47.33;;;2.90;99.90;;;;;;5074317;28;20028;-70
2022/11/30 05:45:07;;;;;;;91.68;45.42;;;2.90;99.90;;;;;;5073567;28;20095;-69
2022/11/30 05:47:33;;;;;;;95.15;46.72;;;2.90;99.90;;;;;;5073799;28;20035;-69
2022/11/30 05:49:59;;;;;;;98.45;47.15;;;2.90;99.90;;;;;;5073992;28;20028;-69
2022/11/30 05:52:24;;;;;;;96.28;46.13;;;2.90;99.90;;;;;;5073263;28;20029;-68
2022/11/30 05:54:50;;;;;;;91.63;45.00;;;2.90;99.90;;;;;;5073626;28;20368;-70
2022/11/30 05:57:15;;;;;;;100.57;48.78;;;2.90;99.90;;;;;;5073262;28;20031;-69
2022/11/30 05:59:41;;;;;;;92.35;45.83;;;2.90;99.90;;;;;;5073394;28;20020;-69
2022/11/30 06:02:07;;;;;;;91.13;45.72;;;2.90;99.90;;;;;;5053146;28;20033;-69
2022/11/30 06:04:33;;;;;;;95.10;44.50;;;2.90;99.90;;;;;;5053365;28;20104;-70
2022/11/30 06:06:59;;;;;;;90.97;45.47;;;2.90;99.90;;;;;;5053107;28;20052;-68
2022/11/30 06:09:24;;;;;;;99.05;47.05;;;3.00;99.90;;;;;;5052673;28;20491;-68
2022/11/30 06:11:50;;;;;;;88.45;47.58;;;3.00;99.90;;;;;;5053261;28;20033;-69
2022/11/30 06:14:16;;;;;;;99.20;46.63;;;3.00;99.90;;;;;;5052233;28;20096;-69
2022/11/30 06:16:41;;;;;;;98.45;47.13;;;3.00;99.90;;;;;;5051982;28;20052;-69
2022/11/30 06:19:07;;;;;;;94.97;46.70;;;3.00;99.90;;;;;;5051257;28;20531;-70
2022/11/30 06:21:33;;;;;;;99.43;49.15;;;3.00;99.90;;;;;;5052819;28;20218;-69
2022/11/30 06:23:58;;;;;;;92.00;47.63;;;2.90;99.90;;;;;;5052835;28;20112;-69
2022/11/30 06:26:24;;;;;;;98.82;49.15;;;2.90;99.90;;;;;;5051513;28;20052;-70
2022/11/30 06:28:50;;;;;;;97.65;46.83;;;2.90;99.90;;;;;;5053054;28;20051;-67
2022/11/30 06:31:15;;;;;;;101.00;48.85;;;2.90;99.90;;;;;;5052725;28;20032;-68
2022/11/30 06:33:41;;;;;;;100.05;49.58;;;2.90;99.90;;;;;;5052924;28;20021;-67
2022/11/30 06:36:07;;;;;;;96.93;49.38;;;2.90;99.90;;;;;;5052030;28;20531;-68
2022/11/30 06:38:32;;;;;;;99.07;47.55;;;2.90;99.90;;;;;;5052702;28;20025;-67
2022/11/30 06:41:07;;;;;;;92.95;45.88;;;2.90;99.90;;;;;;5052374;28;20040;-67
2022/11/30 06:43:37;;;;;;;98.88;48.67;;;2.90;99.90;;;;;;5053000;28;20031;-67
2022/11/30 06:46:04;;;;;;;99.32;47.15;;;2.90;99.90;;;;;;5052735;28;20451;-67
2022/11/30 06:48:30;;;;;;;98.78;47.25;;;2.90;99.90;;;;;;5052134;28;20028;-68
2022/11/30 06:50:56;;;;;;;99.25;47.38;;;3.00;99.90;;;;;;5052651;28;20028;-67
2022/11/30 06:53:21;;;;;;;100.07;49.10;;;3.00;99.90;;;;;;5050843;28;20025;-67
2022/11/30 06:55:47;;;;;;;96.70;48.40;;;3.00;99.90;;;;;;5052485;28;20021;-68
2022/11/30 06:58:13;;;;;;;92.80;46.25;;;3.00;99.90;;;;;;5052073;28;20028;-68
2022/11/30 07:00:38;;;;;;;97.97;45.47;;;3.00;99.90;;;;;;5052426;28;20025;-67
2022/11/30 07:03:05;;;;;;;89.43;44.00;;;3.00;99.90;;;;;;5052504;28;20037;-68
2022/11/30 07:05:39;;;;;;;88.93;44.15;;;3.00;99.90;;;;;;5051703;28;20021;-68
2022/11/30 07:08:05;;;;;;;88.40;45.40;;;3.00;99.90;;;;;;5051474;28;20067;-68
2022/11/30 07:10:31;;;;;;;94.70;46.90;;;3.00;99.90;;;;;;5051931;28;20442;-68
2022/11/30 07:12:56;;;;;;;91.80;46.22;;;3.10;99.90;;;;;;5052434;28;20104;-67
2022/11/30 07:15:22;;;;;;;99.53;45.60;;;3.10;99.90;;;;;;5050139;28;20044;-67
2022/11/30 07:17:48;;;;;;;93.80;46.22;;;3.00;99.90;;;;;;5052052;28;20032;-67
2022/11/30 07:20:13;;;;;;;89.45;45.20;;;3.10;99.90;;;;;;5051525;28;20519;-67
2022/11/30 07:22:39;;;;;;;93.07;45.55;;;3.10;99.90;;;;;;5052442;28;20035;-67
2022/11/30 07:27:49;;;;;;;91.75;44.60;;;3.20;99.90;;;;;;5052528;28;20032;-69
2022/11/30 07:30:15;;;;;;;90.00;44.33;;;3.20;99.90;;;;;;5052060;28;20033;-68
2022/11/30 07:32:41;;;;;;;92.70;45.92;;;3.20;99.90;;;;;;5052500;28;20075;-68
2022/11/30 07:35:07;;;;;;;87.47;44.60;;;3.20;99.90;;;;;;5050768;28;20041;-68
2022/11/30 07:37:32;;;;;;;96.50;46.10;;;3.30;99.90;;;;;;5050502;28;20061;-68
2022/11/30 07:39:58;;;;;;;91.88;45.85;;;3.30;99.90;;;;;;5052242;28;20127;-68
2022/11/30 07:42:24;;;;;;;92.38;46.60;;;3.30;99.90;;;;;;5052103;28;20033;-68
2022/11/30 07:44:49;;;;;;;95.20;45.00;;;3.30;99.90;;;;;;5052092;28;20055;-67
2022/11/30 07:47:15;;;;;;;88.43;44.13;;;3.30;99.90;;;;;;5051799;28;20086;-67
2022/11/30 07:49:41;;;;;;;82.47;43.28;;;3.30;99.90;;;;;;5056350;28;20032;-68
2022/11/30 07:52:07;;;;;;;87.88;43.85;;;3.30;99.90;;;;;;5056443;28;20021;-67
2022/11/30 07:54:33;;;;;;;85.70;42.92;;;3.30;99.90;;;;;;5055748;28;20098;-67
2022/11/30 07:56:59;;;;;;;88.75;45.47;;;3.30;99.90;;;;;;5055893;28;20445;-67
2022/11/30 07:59:25;;;;;;;88.65;43.35;;;3.30;99.90;;;;;;5055389;28;20074;-66
2022/11/30 08:01:50;;;;;;;89.38;43.13;;;3.40;99.90;;;;;;5056162;28;20029;-68
2022/11/30 08:04:16;;;;;;;81.90;42.58;;;3.40;99.90;;;;;;5055634;28;20369;-68
2022/11/30 08:06:42;;;;;;;85.93;42.35;;;3.40;99.90;;;;;;5055951;28;20414;-67
2022/11/30 08:09:11;;;;;;;85.65;43.28;;;3.40;99.90;;;;;;5054754;28;20033;-67
2022/11/30 08:11:37;;;;;;;85.07;41.55;;;3.50;99.90;;;;;;5055620;28;20029;-67
2022/11/30 08:14:03;;;;;;;87.97;44.22;;;3.50;99.90;;;;;;5055845;28;20227;-69
2022/11/30 08:16:34;;;;;;;86.15;42.20;;;3.50;99.90;;;;;;5055317;28;20029;-67
2022/11/30 08:18:59;;;;;;;87.40;45.20;;;3.60;99.90;;;;;;5056023;28;20530;-68
2022/11/30 08:21:25;;;;;;;90.13;46.45;;;3.60;99.90;;;;;;5055074;28;20108;-67
2022/11/30 08:23:54;;;;;;;81.65;42.80;;;3.70;99.90;;;;;;5055346;28;20029;-67
2022/11/30 08:26:23;;;;;;;76.57;41.47;;;3.70;99.90;;;;;;5055325;28;20066;-66
2022/11/30 08:28:49;;;;;;;74.22;38.42;;;3.70;99.90;;;;;;5055386;28;20108;-66
2022/11/30 08:31:22;;;;;;;78.35;40.17;;;3.70;99.90;;;;;;5055157;28;20059;-67
2022/11/30 08:33:48;;;;;;;79.57;39.65;;;3.70;99.90;;;;;;5055459;28;20025;-67
2022/11/30 08:36:21;;;;;;;76.78;40.20;;;3.70;99.90;;;;;;5055279;28;20060;-69
2022/11/30 08:38:47;;;;;;;82.28;42.92;;;3.80;99.90;;;;;;5055874;28;20078;-67
2022/11/30 08:41:15;;;;;;;80.47;42.67;;;3.90;99.90;;;;;;5055277;28;20037;-66
2022/11/30 08:43:41;;;;;;;81.60;43.35;;;3.90;99.90;;;;;;5055267;28;20083;-67
2022/11/30 08:46:10;;;;;;;79.43;42.92;;;3.90;99.90;;;;;;5037364;28;20053;-67
2022/11/30 08:48:36;;;;;;;80.93;43.28;;;4.00;99.90;;;;;;5054840;28;20047;-69
2022/11/30 08:51:04;;;;;;;80.70;42.30;;;4.10;99.90;;;;;;5055102;28;20025;-66
2022/11/30 08:53:30;;;;;;;78.03;40.42;;;4.10;99.90;;;;;;5054714;28;20021;-67
2022/11/30 08:55:57;;;;;;;75.10;40.58;;;4.10;99.90;;;;;;5055033;28;20104;-66
2022/11/30 08:58:24;;;;;;;69.82;39.08;;;4.20;99.90;;;;;;5054114;28;20033;-66
2022/11/30 09:00:49;;;;;;;72.13;39.78;;;4.20;99.90;;;;;;5054663;28;20109;-67
2022/11/30 09:03:15;;;;;;;70.85;40.03;;;4.20;99.90;;;;;;5054721;28;20440;-67
2022/11/30 09:05:41;;;;;;;77.38;41.50;;;4.20;99.90;;;;;;5054176;28;20484;-67
2022/11/30 09:08:06;;;;;;;64.75;38.33;;;4.30;99.90;;;;;;5054700;28;20491;-67
2022/11/30 09:10:32;;;;;;;67.32;37.78;;;4.30;99.90;;;;;;5053936;28;20106;-67
2022/11/30 09:12:57;;;;;;;67.07;38.33;;;4.30;99.90;;;;;;5054488;28;20098;-67
2022/11/30 09:15:23;;;;;;;72.97;39.45;;;4.40;99.90;;;;;;5054020;28;20033;-67
2022/11/30 09:17:49;;;;;;;71.43;38.35;;;4.40;99.90;;;;;;5054549;28;20024;-67
2022/11/30 09:20:14;;;;;;;66.25;37.17;;;4.40;99.90;;;;;;5054318;28;20452;-67
2022/11/30 09:22:40;;;;;;;70.72;38.53;;;4.40;99.90;;;;;;5053893;28;20053;-66
2022/11/30 09:25:07;;;;;;;72.22;39.70;;;4.40;99.90;;;;;;5054023;28;20176;-67
2022/11/30 09:27:32;;;;;;;72.00;39.83;;;4.50;99.90;;;;;;5054360;28;20025;-69
2022/11/30 09:29:58;;;;;;;74.45;40.55;;;4.50;99.90;;;;;;5054450;28;20031;-67
2022/11/30 09:32:24;;;;;;;69.53;40.50;;;4.60;99.90;;;;;;5053961;28;20450;-68
2022/11/30 09:34:50;;;;;;;74.15;40.63;;;4.60;99.90;;;;;;5053660;28;20021;-67
2022/11/30 09:37:15;;;;;;;74.68;40.75;;;4.60;99.90;;;;;;5054225;28;20028;-67
2022/11/30 09:39:41;;;;;;;69.00;38.92;;;4.60;99.90;;;;;;5053696;28;20021;-68
2022/11/30 09:42:22;;;;;;;66.90;38.45;;;4.60;99.90;;;;;;5054123;28;20064;-68
2022/11/30 09:45:06;;;;;;;69.13;38.22;;;4.50;99.90;;;;;;5054438;28;20024;-67
2022/11/30 09:47:41;;;;;;;65.30;36.30;;;4.60;99.90;;;;;;5052445;28;20129;-67
2022/11/30 09:50:15;;;;;;;73.32;39.00;;;4.60;99.90;;;;;;5054447;28;20485;-68
2022/11/30 09:53:02;;;;;;;70.60;38.20;;;4.60;99.90;;;;;;5053537;28;20025;-68
2022/11/30 09:55:42;;;;;;;67.43;38.33;;;4.60;99.90;;;;;;5053475;28;20028;-67
2022/11/30 09:58:24;;;;;;;63.60;37.75;;;4.60;99.90;;;;;;5053933;28;20032;-67
2022/11/30 10:00:50;;;;;;;66.53;39.03;;;4.70;99.90;;;;;;5054002;28;20025;-69
2022/11/30 10:03:19;;;;;;;79.05;39.60;;;4.70;99.90;;;;;;5053863;28;20123;-67
2022/11/30 10:05:51;;;;;;;71.70;38.67;;;4.70;99.90;;;;;;5053349;28;20017;-68
2022/11/30 10:08:22;;;;;;;64.75;38.05;;;4.80;99.90;;;;;;5053727;28;20051;-67
2022/11/30 10:11:03;;;;;;;64.97;38.03;;;4.80;99.90;;;;;;5052898;28;20040;-68
2022/11/30 10:14:03;;;;;;;72.18;40.03;;;4.80;99.90;;;;;;5053465;28;20029;-68
2022/11/30 10:17:07;;;;;;;71.28;37.53;;;4.90;99.90;;;;;;5053236;28;20047;-67
2022/11/30 10:20:13;;;;;;;66.47;36.80;;;4.90;99.90;;;;;;5053034;28;20021;-67
2022/11/30 10:22:58;;;;;;;70.47;38.22;;;5.00;99.90;;;;;;5053257;28;20037;-68
2022/11/30 10:26:13;;;;;;;67.55;37.03;;;5.00;99.90;;;;;;5052852;28;20033;-67
2022/11/30 10:28:57;;;;;;;64.85;38.10;;;5.00;99.90;;;;;;5030754;28;20065;-66
2022/11/30 10:31:34;;;;;;;64.53;35.72;;;5.00;99.90;;;;;;5031007;28;20048;-72
2022/11/30 10:34:34;;;;;;;61.63;36.35;;;5.00;99.90;;;;;;5030996;28;20042;-68
2022/11/30 10:37:02;;;;;;;67.55;35.78;;;5.00;99.90;;;;;;5016469;28;20092;-67
2022/11/30 10:39:51;;;;;;;63.78;37.55;;;5.00;99.90;;;;;;5030587;28;20037;-66
2022/11/30 10:42:25;;;;;;;67.18;38.00;;;5.00;99.90;;;;;;5030328;28;20030;-68
2022/11/30 10:45:15;;;;;;;77.15;36.92;;;5.10;99.90;;;;;;5031002;28;20033;-67
2022/11/30 10:47:48;;;;;;;62.58;35.67;;;5.10;99.90;;;;;;5030377;28;20030;-68
2022/11/30 10:50:16;;;;;;;60.33;35.60;;;5.10;99.90;;;;;;5030759;28;20393;-67
2022/11/30 10:52:54;;;;;;;64.22;35.40;;;5.10;99.90;;;;;;5030149;28;20068;-68
2022/11/30 10:55:29;;;;;;;68.25;38.10;;;5.10;99.90;;;;;;5030452;28;20044;-67
2022/11/30 10:58:04;;;;;;;64.82;36.45;;;5.10;99.90;;;;;;5030507;28;20037;-66
2022/11/30 11:00:29;;;;;;;69.47;35.45;;;5.10;99.90;;;;;;5052252;28;20478;-67
2022/11/30 11:02:55;;;;;;;60.55;34.15;;;5.20;99.90;;;;;;5052792;28;20067;-68
2022/11/30 11:05:26;;;;;;;58.63;34.88;;;5.20;99.90;;;;;;5052478;28;20057;-67
2022/11/30 11:07:54;;;;;;;66.57;35.20;;;5.20;99.90;;;;;;5052695;28;20079;-67
2022/11/30 11:10:36;;;;;;;59.78;34.60;;;5.20;99.90;;;;;;5051895;28;20029;-67
2022/11/30 11:13:01;;;;;;;65.13;32.97;;;5.20;99.90;;;;;;5052951;28;20032;-68
2022/11/30 11:15:30;;;;;;;61.72;33.08;;;5.20;99.90;;;;;;5052196;28;20453;-69
2022/11/30 11:18:21;;;;;;;63.22;32.78;;;5.20;99.90;;;;;;5052754;28;20112;-68
2022/11/30 11:20:47;;;;;;;61.00;31.92;;;5.20;99.90;;;;;;5051813;28;20439;-68
2022/11/30 11:23:31;;;;;;;60.42;33.53;;;5.20;99.90;;;;;;5052103;28;20036;-67
2022/11/30 11:25:57;;;;;;;58.47;33.33;;;5.20;99.90;;;;;;5051224;28;20025;-68
2022/11/30 11:28:24;;;;;;;59.38;32.42;;;5.20;99.90;;;;;;5052243;28;20204;-67
2022/11/30 11:30:54;;;;;;;61.83;33.60;;;5.30;99.90;;;;;;5052101;28;20462;-68
2022/11/30 11:33:26;;;;;;;55.20;32.77;;;5.30;99.90;;;;;;5051808;28;20331;-68
2022/11/30 11:35:54;;;;;;;62.67;33.15;;;5.30;99.90;;;;;;5031643;28;20056;-68
2022/11/30 11:38:20;;;;;;;60.78;34.60;;;5.30;99.90;;;;;;5032365;28;20061;-68
2022/11/30 11:41:12;;;;;;;59.83;33.05;;;5.30;99.90;;;;;;5031761;28;20485;-67
2022/11/30 11:43:55;;;;;;;55.20;31.55;;;5.40;99.90;;;;;;5032311;28;20124;-67
2022/11/30 11:46:21;;;;;;;55.72;31.88;;;5.40;99.90;;;;;;5032271;28;20033;-67
2022/11/30 11:48:56;;;;;;;52.42;31.02;;;5.40;99.90;;;;;;5031969;28;20026;-67
2022/11/30 11:51:34;;;;;;;57.63;31.17;;;5.40;99.90;;;;;;5031309;28;20363;-67
2022/11/30 11:54:22;;;;;;;55.55;31.23;;;5.30;99.90;;;;;;5031993;28;20489;-67
2022/11/30 11:56:48;;;;;;;54.97;32.30;;;5.40;99.90;;;;;;5031761;28;20029;-68
2022/11/30 11:59:39;;;;;;;51.67;30.95;;;5.40;99.90;;;;;;5032312;28;20053;-68
2022/11/30 12:02:19;;;;;;;59.08;31.67;;;5.40;99.90;;;;;;5032243;28;20033;-67
2022/11/30 12:05:13;;;;;;;54.20;31.10;;;5.40;99.90;;;;;;5031519;28;20081;-67
2022/11/30 12:07:48;;;;;;;55.67;32.05;;;5.50;99.90;;;;;;5031794;28;20045;-68
2022/11/30 12:10:22;;;;;;;51.17;29.92;;;5.50;99.90;;;;;;5032262;28;20104;-68
2022/11/30 12:12:48;;;;;;;49.38;28.85;;;5.50;99.90;;;;;;5032008;28;20033;-68
2022/11/30 12:15:14;;;;;;;52.67;29.45;;;5.50;99.90;;;;;;5032265;28;20383;-68
2022/11/30 12:18:00;;;;;;;56.58;29.48;;;5.50;99.90;;;;;;5031730;28;20133;-68
2022/11/30 12:20:49;;;;;;;45.72;27.10;;;5.50;99.90;;;;;;5032175;28;20509;-68
2022/11/30 12:23:47;;;;;;;52.05;27.30;;;5.50;99.90;;;;;;5032137;28;20030;-68
2022/11/30 12:26:31;;;;;;;48.80;27.17;;;5.60;99.90;;;;;;5031909;28;20104;-68
2022/11/30 12:28:57;;;;;;;46.28;26.83;;;5.50;99.90;;;;;;5031816;28;20037;-68
2022/11/30 12:31:26;;;;;;;43.63;25.73;;;5.60;99.90;;;;;;5031959;28;20029;-67
2022/11/30 12:34:13;;;;;;;43.30;25.63;;;5.60;99.90;;;;;;5032448;28;20797;-67
2022/11/30 12:37:05;;;;;;;38.78;20.38;;;5.60;99.90;;;;;;5034565;28;20517;-69
2022/11/30 12:40:08;;;;;;;39.00;20.63;;;5.60;99.90;;;;;;5035664;28;20060;-68
2022/11/30 12:42:42;;;;;;;33.53;20.52;;;5.60;99.90;;;;;;5035062;28;20045;-68
2022/11/30 12:45:18;;;;;;;43.25;20.95;;;5.70;99.90;;;;;;5035439;28;20347;-68
2022/11/30 12:48:18;;;;;;;36.35;21.05;;;5.70;99.90;;;;;;5035208;28;20029;-67
2022/11/30 12:51:02;;;;;;;36.75;22.33;;;5.70;99.90;;;;;;5034983;28;20039;-68